This is the latest recevied weather packets stored in our database for station/object KD2VWU. If no packets are shown the sender has not sent any weather packets the latest 10 day(s).
| Time | Temp. | Humidity | Pressure | Rain* | Wind** | Luminosity | Snow |
|---|---|---|---|---|---|---|---|
| 1777747413 | 13.89° C | 65% | 1008.4 hPa | 0 mm | - | - | - |
| 1777747109 | 13.33° C | 62% | 1008.5 hPa | 0 mm | - | - | - |
| 1777746806 | 13.33° C | 64% | 1008.5 hPa | 0 mm | - | - | - |
| 1777746501 | 12.78° C | 66% | 1008.5 hPa | 0 mm | - | - | - |
| 1777746196 | 13.33° C | 63% | 1008.6 hPa | 0 mm | - | - | - |
| 1777745893 | 13.89° C | 64% | 1008.5 hPa | 0 mm | - | - | - |
| 1777745592 | 13.33° C | 67% | 1008.6 hPa | 0 mm | - | - | - |
| 1777745290 | 12.22° C | 73% | 1008.6 hPa | 0 mm | - | - | - |
| 1777744987 | 12.22° C | 73% | 1008.6 hPa | 0 mm | - | - | - |
| 1777744683 | 12.78° C | 71% | 1008.6 hPa | 0 mm | - | - | - |
| 1777744376 | 11.67° C | 74% | 1008.8 hPa | 0 mm | - | - | - |
| 1777744074 | 11.67° C | 76% | 1008.7 hPa | 0 mm | - | - | - |
| 1777743771 | 11.11° C | 79% | 1008.6 hPa | 0 mm | - | - | - |
| 1777743468 | 11.11° C | 77% | 1008.8 hPa | 0 mm | - | - | - |
| 1777743165 | 11.11° C | 77% | 1008.9 hPa | 0 mm | - | - | - |
| 1777742863 | 10.56° C | 78% | 1008.9 hPa | 0 mm | - | - | - |
| 1777742559 | 10.56° C | 81% | 1009 hPa | 0 mm | - | - | - |
| 1777742255 | 10.56° C | 78% | 1009 hPa | 0 mm | - | - | - |
| 1777741952 | 10.56° C | 79% | 1009 hPa | 0 mm | - | - | - |
| 1777741649 | 10.56° C | 78% | 1009 hPa | 0 mm | - | - | - |
| 1777741346 | 11.11° C | 78% | 1009 hPa | 0 mm | - | - | - |
| 1777741041 | 10.56° C | 81% | 1009 hPa | 0 mm | - | - | - |
| 1777740739 | 10.56° C | 81% | 1009.1 hPa | 0 mm | - | - | - |
| 1777740435 | 11.11° C | 82% | 1009.1 hPa | 0 mm | - | - | - |
| 1777740127 | 11.11° C | 81% | 1009 hPa | 0 mm | - | - | - |
* Rain latest hour (hover to see other rain measurements)
** Current wind speed in m/s (hover to see current wind gust speed)